Terminal Aerodrome Forecast
Issued by NWS

Home | Current Version | Previous Version | Graphics & Text | Print | Product List | Glossary Off
Versions: 1 2 3 4 5 6 7 8 9 10 11 12 13 14 15 16 17 18 19 20 21 22 23 24 25 26 27 28 29 30 31 32 33

000
FTUS43 KDDC 282004 AAB
TAFHYS
TAF AMD
KHYS 282004Z 2820/2918 VRB06KT P6SM FEW035 BKN045 BKN050
      TEMPO 2821/2823 BKN030
     FM282300 VRB20KT P6SM VCTS BKN060CB
     FM290300 VRB06KT P6SM SCT030=

USA.gov is the U.S. government's official web portal to all federal, state and local government web resources and services.